sensor_id;sensor_type;location;lat;lon;timestamp;temperature;humidity
44833;DHT22;30569;51.252;9.830;2023-05-03T00:02:01;3.60;99.90
44833;DHT22;30569;51.252;9.830;2023-05-03T00:04:28;3.70;99.90
44833;DHT22;30569;51.252;9.830;2023-05-03T00:06:56;3.40;99.90
44833;DHT22;30569;51.252;9.830;2023-05-03T00:09:22;3.50;99.90
44833;DHT22;30569;51.252;9.830;2023-05-03T00:11:48;3.40;99.90
44833;DHT22;30569;51.252;9.830;2023-05-03T00:14:13;3.20;99.90
44833;DHT22;30569;51.252;9.830;2023-05-03T00:16:39;3.10;99.90
44833;DHT22;30569;51.252;9.830;2023-05-03T00:19:05;2.70;99.90
44833;DHT22;30569;51.252;9.830;2023-05-03T00:21:30;2.70;99.90
44833;DHT22;30569;51.252;9.830;2023-05-03T00:23:56;3.20;99.90
44833;DHT22;30569;51.252;9.830;2023-05-03T00:26:21;3.10;99.90
44833;DHT22;30569;51.252;9.830;2023-05-03T00:33:39;2.20;99.90
44833;DHT22;30569;51.252;9.830;2023-05-03T00:36:12;2.70;99.90
44833;DHT22;30569;51.252;9.830;2023-05-03T00:38:39;2.50;99.90
44833;DHT22;30569;51.252;9.830;2023-05-03T00:41:06;2.40;99.90
44833;DHT22;30569;51.252;9.830;2023-05-03T00:43:32;2.50;99.90
44833;DHT22;30569;51.252;9.830;2023-05-03T00:45:59;3.60;99.90
44833;DHT22;30569;51.252;9.830;2023-05-03T00:48:26;2.60;99.90
44833;DHT22;30569;51.252;9.830;2023-05-03T00:50:52;2.20;99.90
44833;DHT22;30569;51.252;9.830;2023-05-03T00:53:19;2.10;99.90
44833;DHT22;30569;51.252;9.830;2023-05-03T00:55:45;2.10;99.90
44833;DHT22;30569;51.252;9.830;2023-05-03T00:58:11;2.00;99.90
44833;DHT22;30569;51.252;9.830;2023-05-03T01:00:37;2.10;99.90
44833;DHT22;30569;51.252;9.830;2023-05-03T01:03:03;2.40;99.90
44833;DHT22;30569;51.252;9.830;2023-05-03T01:05:33;2.50;99.90
44833;DHT22;30569;51.252;9.830;2023-05-03T01:08:10;2.40;99.90
44833;DHT22;30569;51.252;9.830;2023-05-03T01:11:06;2.00;99.90
44833;DHT22;30569;51.252;9.830;2023-05-03T01:13:54;2.50;99.90
44833;DHT22;30569;51.252;9.830;2023-05-03T01:16:38;2.40;99.90
44833;DHT22;30569;51.252;9.830;2023-05-03T01:19:15;2.00;99.90
44833;DHT22;30569;51.252;9.830;2023-05-03T01:21:46;1.60;99.90
44833;DHT22;30569;51.252;9.830;2023-05-03T01:24:17;1.60;99.90
44833;DHT22;30569;51.252;9.830;2023-05-03T01:26:46;1.80;99.90
44833;DHT22;30569;51.252;9.830;2023-05-03T01:31:56;1.90;99.90
44833;DHT22;30569;51.252;9.830;2023-05-03T01:34:30;1.40;99.90
44833;DHT22;30569;51.252;9.830;2023-05-03T01:36:58;1.40;99.90
44833;DHT22;30569;51.252;9.830;2023-05-03T01:39:28;1.40;99.90
44833;DHT22;30569;51.252;9.830;2023-05-03T01:41:56;1.40;99.90
44833;DHT22;30569;51.252;9.830;2023-05-03T01:44:23;1.30;99.90
44833;DHT22;30569;51.252;9.830;2023-05-03T01:46:49;1.60;99.90
44833;DHT22;30569;51.252;9.830;2023-05-03T01:49:15;1.30;99.90
44833;DHT22;30569;51.252;9.830;2023-05-03T01:51:41;1.20;99.90
44833;DHT22;30569;51.252;9.830;2023-05-03T01:54:06;1.70;99.90
44833;DHT22;30569;51.252;9.830;2023-05-03T01:56:33;1.30;99.90
44833;DHT22;30569;51.252;9.830;2023-05-03T01:58:59;1.40;99.90
44833;DHT22;30569;51.252;9.830;2023-05-03T02:01:25;1.70;99.90
44833;DHT22;30569;51.252;9.830;2023-05-03T02:03:51;1.30;99.90
44833;DHT22;30569;51.252;9.830;2023-05-03T02:06:16;0.80;99.90
44833;DHT22;30569;51.252;9.830;2023-05-03T02:08:42;1.20;99.90
44833;DHT22;30569;51.252;9.830;2023-05-03T02:11:07;1.40;99.90
44833;DHT22;30569;51.252;9.830;2023-05-03T02:13:35;1.30;99.90
44833;DHT22;30569;51.252;9.830;2023-05-03T02:16:00;1.30;99.90
44833;DHT22;30569;51.252;9.830;2023-05-03T02:18:26;0.80;99.90
44833;DHT22;30569;51.252;9.830;2023-05-03T02:20:55;1.10;99.90
44833;DHT22;30569;51.252;9.830;2023-05-03T02:25:47;1.50;99.90
44833;DHT22;30569;51.252;9.830;2023-05-03T02:28:14;1.40;99.90
44833;DHT22;30569;51.252;9.830;2023-05-03T02:30:40;0.80;99.90
44833;DHT22;30569;51.252;9.830;2023-05-03T02:33:05;0.80;99.90
44833;DHT22;30569;51.252;9.830;2023-05-03T02:37:57;0.30;99.90
44833;DHT22;30569;51.252;9.830;2023-05-03T02:40:22;1.00;99.90
44833;DHT22;30569;51.252;9.830;2023-05-03T02:42:48;1.30;99.90
44833;DHT22;30569;51.252;9.830;2023-05-03T02:45:13;1.10;99.90
44833;DHT22;30569;51.252;9.830;2023-05-03T02:47:39;1.10;99.90
44833;DHT22;30569;51.252;9.830;2023-05-03T02:50:05;1.40;99.90
44833;DHT22;30569;51.252;9.830;2023-05-03T02:52:31;1.30;99.90
44833;DHT22;30569;51.252;9.830;2023-05-03T02:54:57;1.30;99.90
44833;DHT22;30569;51.252;9.830;2023-05-03T02:57:22;0.90;99.90
44833;DHT22;30569;51.252;9.830;2023-05-03T02:59:48;0.50;99.90
44833;DHT22;30569;51.252;9.830;2023-05-03T03:02:13;0.70;99.90
44833;DHT22;30569;51.252;9.830;2023-05-03T03:07:05;0.60;99.90
44833;DHT22;30569;51.252;9.830;2023-05-03T03:09:31;0.70;99.90
44833;DHT22;30569;51.252;9.830;2023-05-03T03:11:56;0.90;99.90
44833;DHT22;30569;51.252;9.830;2023-05-03T03:14:22;0.80;99.90
44833;DHT22;30569;51.252;9.830;2023-05-03T03:16:50;0.40;99.90
44833;DHT22;30569;51.252;9.830;2023-05-03T03:19:15;0.90;99.90
44833;DHT22;30569;51.252;9.830;2023-05-03T03:24:07;0.30;99.90
44833;DHT22;30569;51.252;9.830;2023-05-03T03:26:32;0.60;99.90
44833;DHT22;30569;51.252;9.830;2023-05-03T03:28:58;0.90;99.90
44833;DHT22;30569;51.252;9.830;2023-05-03T03:31:23;0.50;99.90
44833;DHT22;30569;51.252;9.830;2023-05-03T03:38:42;1.00;99.90
44833;DHT22;30569;51.252;9.830;2023-05-03T03:41:08;0.80;99.90
44833;DHT22;30569;51.252;9.830;2023-05-03T03:48:25;0.40;99.90
44833;DHT22;30569;51.252;9.830;2023-05-03T03:50:51;1.10;99.90
44833;DHT22;30569;51.252;9.830;2023-05-03T03:53:16;0.90;99.90
44833;DHT22;30569;51.252;9.830;2023-05-03T03:55:42;0.80;99.90
44833;DHT22;30569;51.252;9.830;2023-05-03T03:58:08;0.80;99.90
44833;DHT22;30569;51.252;9.830;2023-05-03T04:00:34;0.80;99.90
44833;DHT22;30569;51.252;9.830;2023-05-03T04:03:03;0.40;99.90
44833;DHT22;30569;51.252;9.830;2023-05-03T04:05:29;0.30;99.90
44833;DHT22;30569;51.252;9.830;2023-05-03T04:07:54;0.30;99.90
44833;DHT22;30569;51.252;9.830;2023-05-03T04:12:46;0.10;99.90
44833;DHT22;30569;51.252;9.830;2023-05-03T04:15:12;0.70;99.90
44833;DHT22;30569;51.252;9.830;2023-05-03T04:17:37;0.50;99.90
44833;DHT22;30569;51.252;9.830;2023-05-03T04:20:03;-0.10;99.90
44833;DHT22;30569;51.252;9.830;2023-05-03T04:27:26;-0.10;99.90
44833;DHT22;30569;51.252;9.830;2023-05-03T04:29:52;0.20;99.90
44833;DHT22;30569;51.252;9.830;2023-05-03T04:32:18;0.60;99.90
44833;DHT22;30569;51.252;9.830;2023-05-03T04:34:50;0.90;99.90
44833;DHT22;30569;51.252;9.830;2023-05-03T04:37:17;0.30;99.90
44833;DHT22;30569;51.252;9.830;2023-05-03T04:39:44;0.10;99.90
44833;DHT22;30569;51.252;9.830;2023-05-03T04:42:13;0.60;99.90
44833;DHT22;30569;51.252;9.830;2023-05-03T04:44:42;0.30;99.90
44833;DHT22;30569;51.252;9.830;2023-05-03T04:47:08;0.30;99.90
44833;DHT22;30569;51.252;9.830;2023-05-03T04:49:34;1.10;99.90
44833;DHT22;30569;51.252;9.830;2023-05-03T04:52:00;0.60;99.90
44833;DHT22;30569;51.252;9.830;2023-05-03T04:54:25;0.30;99.90
44833;DHT22;30569;51.252;9.830;2023-05-03T04:56:53;0.20;99.90
44833;DHT22;30569;51.252;9.830;2023-05-03T04:59:19;0.60;99.90
44833;DHT22;30569;51.252;9.830;2023-05-03T05:01:45;1.50;99.90
44833;DHT22;30569;51.252;9.830;2023-05-03T05:06:37;0.40;99.90
44833;DHT22;30569;51.252;9.830;2023-05-03T05:09:05;0.80;99.90
44833;DHT22;30569;51.252;9.830;2023-05-03T05:16:23;1.30;99.90
44833;DHT22;30569;51.252;9.830;2023-05-03T05:26:07;1.60;99.90
44833;DHT22;30569;51.252;9.830;2023-05-03T05:28:32;1.60;99.90
44833;DHT22;30569;51.252;9.830;2023-05-03T05:33:24;1.80;99.90
44833;DHT22;30569;51.252;9.830;2023-05-03T05:38:16;2.50;99.90
44833;DHT22;30569;51.252;9.830;2023-05-03T05:43:08;3.60;99.90
44833;DHT22;30569;51.252;9.830;2023-05-03T05:48:00;3.90;99.90
44833;DHT22;30569;51.252;9.830;2023-05-03T05:52:53;4.50;99.90
44833;DHT22;30569;51.252;9.830;2023-05-03T05:55:19;4.40;99.90
44833;DHT22;30569;51.252;9.830;2023-05-03T06:00:12;5.20;99.90
44833;DHT22;30569;51.252;9.830;2023-05-03T06:02:42;5.30;99.90
44833;DHT22;30569;51.252;9.830;2023-05-03T06:05:09;5.40;99.90
44833;DHT22;30569;51.252;9.830;2023-05-03T06:07:35;5.60;99.90
44833;DHT22;30569;51.252;9.830;2023-05-03T06:10:01;6.00;99.90
44833;DHT22;30569;51.252;9.830;2023-05-03T06:19:50;7.20;99.90
44833;DHT22;30569;51.252;9.830;2023-05-03T06:22:15;7.20;99.90
44833;DHT22;30569;51.252;9.830;2023-05-03T06:29:33;7.30;99.90
44833;DHT22;30569;51.252;9.830;2023-05-03T06:34:25;7.70;99.90
44833;DHT22;30569;51.252;9.830;2023-05-03T06:36:51;7.70;99.90
44833;DHT22;30569;51.252;9.830;2023-05-03T06:39:16;8.30;99.90
44833;DHT22;30569;51.252;9.830;2023-05-03T06:44:08;8.50;99.90
44833;DHT22;30569;51.252;9.830;2023-05-03T06:46:34;9.00;99.90
44833;DHT22;30569;51.252;9.830;2023-05-03T06:49:00;9.40;99.90
44833;DHT22;30569;51.252;9.830;2023-05-03T06:51:26;9.70;99.90
44833;DHT22;30569;51.252;9.830;2023-05-03T06:53:54;9.90;99.90
44833;DHT22;30569;51.252;9.830;2023-05-03T06:58:46;11.00;99.40
44833;DHT22;30569;51.252;9.830;2023-05-03T07:01:12;11.20;99.70
44833;DHT22;30569;51.252;9.830;2023-05-03T07:03:38;11.30;98.00
44833;DHT22;30569;51.252;9.830;2023-05-03T07:06:04;11.60;97.80
44833;DHT22;30569;51.252;9.830;2023-05-03T07:08:29;12.20;95.90
44833;DHT22;30569;51.252;9.830;2023-05-03T07:10:55;12.00;94.60
44833;DHT22;30569;51.252;9.830;2023-05-03T07:13:21;11.90;94.40
44833;DHT22;30569;51.252;9.830;2023-05-03T07:15:47;12.50;94.60
44833;DHT22;30569;51.252;9.830;2023-05-03T07:18:12;13.50;92.00
44833;DHT22;30569;51.252;9.830;2023-05-03T07:20:38;14.00;91.60
44833;DHT22;30569;51.252;9.830;2023-05-03T07:23:03;14.20;90.30
44833;DHT22;30569;51.252;9.830;2023-05-03T07:25:31;14.30;89.50
44833;DHT22;30569;51.252;9.830;2023-05-03T07:27:57;14.40;90.30
44833;DHT22;30569;51.252;9.830;2023-05-03T07:30:22;14.80;85.70
44833;DHT22;30569;51.252;9.830;2023-05-03T07:32:48;16.30;85.50
44833;DHT22;30569;51.252;9.830;2023-05-03T07:35:15;15.70;82.40
44833;DHT22;30569;51.252;9.830;2023-05-03T07:37:41;16.40;79.30
44833;DHT22;30569;51.252;9.830;2023-05-03T07:40:07;17.60;77.70
44833;DHT22;30569;51.252;9.830;2023-05-03T07:42:34;18.00;74.10
44833;DHT22;30569;51.252;9.830;2023-05-03T07:47:26;16.70;75.00
44833;DHT22;30569;51.252;9.830;2023-05-03T07:49:52;18.30;71.80
44833;DHT22;30569;51.252;9.830;2023-05-03T07:52:18;18.60;71.00
44833;DHT22;30569;51.252;9.830;2023-05-03T07:54:44;21.00;66.30
44833;DHT22;30569;51.252;9.830;2023-05-03T07:57:13;19.50;64.60
44833;DHT22;30569;51.252;9.830;2023-05-03T07:59:39;16.30;69.20
44833;DHT22;30569;51.252;9.830;2023-05-03T08:02:05;16.50;70.00
44833;DHT22;30569;51.252;9.830;2023-05-03T08:04:30;17.30;66.60
44833;DHT22;30569;51.252;9.830;2023-05-03T08:06:59;17.70;66.50
44833;DHT22;30569;51.252;9.830;2023-05-03T08:09:25;18.20;65.90
44833;DHT22;30569;51.252;9.830;2023-05-03T08:11:53;18.20;66.30
44833;DHT22;30569;51.252;9.830;2023-05-03T08:14:18;18.10;64.80
44833;DHT22;30569;51.252;9.830;2023-05-03T08:16:44;18.90;64.20
44833;DHT22;30569;51.252;9.830;2023-05-03T08:19:09;19.10;62.50
44833;DHT22;30569;51.252;9.830;2023-05-03T08:21:35;18.80;61.80
44833;DHT22;30569;51.252;9.830;2023-05-03T08:28:54;21.40;57.50
44833;DHT22;30569;51.252;9.830;2023-05-03T08:31:19;21.30;57.10
44833;DHT22;30569;51.252;9.830;2023-05-03T08:33:45;21.70;56.20
44833;DHT22;30569;51.252;9.830;2023-05-03T08:36:10;22.40;54.20
44833;DHT22;30569;51.252;9.830;2023-05-03T08:38:37;24.10;52.90
44833;DHT22;30569;51.252;9.830;2023-05-03T08:41:21;26.60;49.50
44833;DHT22;30569;51.252;9.830;2023-05-03T08:43:52;27.70;44.60
44833;DHT22;30569;51.252;9.830;2023-05-03T08:46:19;28.80;43.00
44833;DHT22;30569;51.252;9.830;2023-05-03T08:48:48;26.60;45.00
44833;DHT22;30569;51.252;9.830;2023-05-03T08:51:18;30.00;41.40
44833;DHT22;30569;51.252;9.830;2023-05-03T08:53:44;31.70;39.80
44833;DHT22;30569;51.252;9.830;2023-05-03T08:56:11;34.10;38.40
44833;DHT22;30569;51.252;9.830;2023-05-03T08:58:40;35.30;38.80
44833;DHT22;30569;51.252;9.830;2023-05-03T09:01:07;36.40;35.00
44833;DHT22;30569;51.252;9.830;2023-05-03T09:03:34;34.40;35.80
44833;DHT22;30569;51.252;9.830;2023-05-03T09:06:00;34.60;36.60
44833;DHT22;30569;51.252;9.830;2023-05-03T09:08:29;33.40;37.30
44833;DHT22;30569;51.252;9.830;2023-05-03T09:10:56;32.80;35.10
44833;DHT22;30569;51.252;9.830;2023-05-03T09:13:29;32.20;36.50
44833;DHT22;30569;51.252;9.830;2023-05-03T09:15:56;33.30;36.80
44833;DHT22;30569;51.252;9.830;2023-05-03T09:18:22;28.80;38.10
44833;DHT22;30569;51.252;9.830;2023-05-03T09:20:50;31.20;37.30
44833;DHT22;30569;51.252;9.830;2023-05-03T09:25:50;34.60;35.80
44833;DHT22;30569;51.252;9.830;2023-05-03T09:28:16;35.60;34.70
44833;DHT22;30569;51.252;9.830;2023-05-03T09:30:43;35.60;33.80
44833;DHT22;30569;51.252;9.830;2023-05-03T09:33:09;35.00;34.60
44833;DHT22;30569;51.252;9.830;2023-05-03T09:35:36;34.30;36.40
44833;DHT22;30569;51.252;9.830;2023-05-03T09:38:02;35.50;35.10
44833;DHT22;30569;51.252;9.830;2023-05-03T09:40:28;37.50;34.00
44833;DHT22;30569;51.252;9.830;2023-05-03T09:43:10;37.20;32.90
44833;DHT22;30569;51.252;9.830;2023-05-03T09:45:37;36.40;34.50
44833;DHT22;30569;51.252;9.830;2023-05-03T09:48:04;34.60;35.30
44833;DHT22;30569;51.252;9.830;2023-05-03T09:50:32;34.60;35.60
44833;DHT22;30569;51.252;9.830;2023-05-03T09:53:02;34.80;35.40
44833;DHT22;30569;51.252;9.830;2023-05-03T09:55:32;33.30;37.30
44833;DHT22;30569;51.252;9.830;2023-05-03T09:58:00;32.00;38.00
44833;DHT22;30569;51.252;9.830;2023-05-03T10:00:40;29.00;38.00
44833;DHT22;30569;51.252;9.830;2023-05-03T10:03:08;27.10;41.00
44833;DHT22;30569;51.252;9.830;2023-05-03T10:05:48;25.40;43.10
44833;DHT22;30569;51.252;9.830;2023-05-03T10:08:26;24.30;44.60
44833;DHT22;30569;51.252;9.830;2023-05-03T10:10:52;22.50;46.40
44833;DHT22;30569;51.252;9.830;2023-05-03T10:13:21;21.50;50.00
44833;DHT22;30569;51.252;9.830;2023-05-03T10:16:10;20.70;49.00
44833;DHT22;30569;51.252;9.830;2023-05-03T10:18:43;19.50;52.50
44833;DHT22;30569;51.252;9.830;2023-05-03T10:24:25;17.90;55.80
44833;DHT22;30569;51.252;9.830;2023-05-03T10:26:50;17.90;56.70
44833;DHT22;30569;51.252;9.830;2023-05-03T10:32:02;16.70;60.30
44833;DHT22;30569;51.252;9.830;2023-05-03T10:34:35;16.50;58.50
44833;DHT22;30569;51.252;9.830;2023-05-03T10:37:08;16.50;61.10
44833;DHT22;30569;51.252;9.830;2023-05-03T10:39:34;16.70;62.50
44833;DHT22;30569;51.252;9.830;2023-05-03T10:42:04;16.60;57.30
44833;DHT22;30569;51.252;9.830;2023-05-03T10:44:59;16.60;60.00
44833;DHT22;30569;51.252;9.830;2023-05-03T10:47:25;16.30;60.10
44833;DHT22;30569;51.252;9.830;2023-05-03T10:55:11;15.70;63.30
44833;DHT22;30569;51.252;9.830;2023-05-03T10:57:39;15.80;63.80
44833;DHT22;30569;51.252;9.830;2023-05-03T11:00:35;15.90;63.10
44833;DHT22;30569;51.252;9.830;2023-05-03T11:05:43;15.90;59.50
44833;DHT22;30569;51.252;9.830;2023-05-03T11:08:17;15.90;62.40
44833;DHT22;30569;51.252;9.830;2023-05-03T11:10:47;16.00;63.20
44833;DHT22;30569;51.252;9.830;2023-05-03T11:13:14;15.70;61.70
44833;DHT22;30569;51.252;9.830;2023-05-03T11:15:41;15.70;60.90
44833;DHT22;30569;51.252;9.830;2023-05-03T11:18:10;15.50;62.60
44833;DHT22;30569;51.252;9.830;2023-05-03T11:20:36;15.10;62.40
44833;DHT22;30569;51.252;9.830;2023-05-03T11:23:03;15.20;62.10
44833;DHT22;30569;51.252;9.830;2023-05-03T11:25:28;15.30;63.60
44833;DHT22;30569;51.252;9.830;2023-05-03T11:27:54;15.40;64.60
44833;DHT22;30569;51.252;9.830;2023-05-03T11:30:20;15.30;64.40
44833;DHT22;30569;51.252;9.830;2023-05-03T11:32:46;15.30;65.70
44833;DHT22;30569;51.252;9.830;2023-05-03T11:35:13;15.20;66.60
44833;DHT22;30569;51.252;9.830;2023-05-03T11:37:41;15.40;65.80
44833;DHT22;30569;51.252;9.830;2023-05-03T11:40:12;15.40;61.50
44833;DHT22;30569;51.252;9.830;2023-05-03T11:42:59;15.20;61.60
44833;DHT22;30569;51.252;9.830;2023-05-03T11:45:28;15.30;63.00
44833;DHT22;30569;51.252;9.830;2023-05-03T11:47:54;15.40;64.80
44833;DHT22;30569;51.252;9.830;2023-05-03T11:50:33;15.30;61.00
44833;DHT22;30569;51.252;9.830;2023-05-03T11:53:07;15.50;62.60
44833;DHT22;30569;51.252;9.830;2023-05-03T11:55:33;15.40;65.50
44833;DHT22;30569;51.252;9.830;2023-05-03T11:58:02;15.50;65.10
44833;DHT22;30569;51.252;9.830;2023-05-03T12:00:27;15.40;60.40
44833;DHT22;30569;51.252;9.830;2023-05-03T12:02:58;15.30;62.50
44833;DHT22;30569;51.252;9.830;2023-05-03T12:05:24;15.30;66.00
44833;DHT22;30569;51.252;9.830;2023-05-03T12:07:50;15.10;60.60
44833;DHT22;30569;51.252;9.830;2023-05-03T12:10:16;15.20;63.10
44833;DHT22;30569;51.252;9.830;2023-05-03T12:12:56;15.30;59.70
44833;DHT22;30569;51.252;9.830;2023-05-03T12:15:29;15.30;62.80
44833;DHT22;30569;51.252;9.830;2023-05-03T12:17:56;15.50;69.00
44833;DHT22;30569;51.252;9.830;2023-05-03T12:20:23;15.10;59.50
44833;DHT22;30569;51.252;9.830;2023-05-03T12:22:51;15.00;61.40
44833;DHT22;30569;51.252;9.830;2023-05-03T12:25:16;15.10;65.30
44833;DHT22;30569;51.252;9.830;2023-05-03T12:27:42;15.30;66.80
44833;DHT22;30569;51.252;9.830;2023-05-03T12:30:08;15.70;64.10
44833;DHT22;30569;51.252;9.830;2023-05-03T12:32:37;15.70;64.50
44833;DHT22;30569;51.252;9.830;2023-05-03T12:35:07;15.70;62.20
44833;DHT22;30569;51.252;9.830;2023-05-03T12:37:35;15.60;60.60
44833;DHT22;30569;51.252;9.830;2023-05-03T12:40:02;15.90;62.00
44833;DHT22;30569;51.252;9.830;2023-05-03T12:42:27;15.90;60.90
44833;DHT22;30569;51.252;9.830;2023-05-03T12:44:57;15.60;60.40
44833;DHT22;30569;51.252;9.830;2023-05-03T12:47:22;15.40;61.80
44833;DHT22;30569;51.252;9.830;2023-05-03T12:49:48;15.10;62.80
44833;DHT22;30569;51.252;9.830;2023-05-03T12:52:14;15.10;62.70
44833;DHT22;30569;51.252;9.830;2023-05-03T12:54:39;14.90;63.10
44833;DHT22;30569;51.252;9.830;2023-05-03T12:57:06;14.80;64.00
44833;DHT22;30569;51.252;9.830;2023-05-03T12:59:32;15.00;66.90
44833;DHT22;30569;51.252;9.830;2023-05-03T13:01:57;15.00;66.90
44833;DHT22;30569;51.252;9.830;2023-05-03T13:04:23;15.30;65.20
44833;DHT22;30569;51.252;9.830;2023-05-03T13:06:48;15.60;61.00
44833;DHT22;30569;51.252;9.830;2023-05-03T13:11:41;15.50;60.80
44833;DHT22;30569;51.252;9.830;2023-05-03T13:14:07;15.20;61.60
44833;DHT22;30569;51.252;9.830;2023-05-03T13:16:32;15.10;63.20
44833;DHT22;30569;51.252;9.830;2023-05-03T13:18:59;15.10;63.70
44833;DHT22;30569;51.252;9.830;2023-05-03T13:21:25;15.30;63.50
44833;DHT22;30569;51.252;9.830;2023-05-03T13:23:52;15.50;65.00
44833;DHT22;30569;51.252;9.830;2023-05-03T13:26:17;15.70;64.50
44833;DHT22;30569;51.252;9.830;2023-05-03T13:28:43;15.80;66.50
44833;DHT22;30569;51.252;9.830;2023-05-03T13:31:10;15.80;60.60
44833;DHT22;30569;51.252;9.830;2023-05-03T13:33:35;15.80;60.30
44833;DHT22;30569;51.252;9.830;2023-05-03T13:36:03;15.60;60.20
44833;DHT22;30569;51.252;9.830;2023-05-03T13:38:28;15.60;59.80
44833;DHT22;30569;51.252;9.830;2023-05-03T13:40:54;15.60;60.20
44833;DHT22;30569;51.252;9.830;2023-05-03T13:43:19;15.60;62.40
44833;DHT22;30569;51.252;9.830;2023-05-03T13:45:45;15.40;62.20
44833;DHT22;30569;51.252;9.830;2023-05-03T13:48:11;15.50;63.10
44833;DHT22;30569;51.252;9.830;2023-05-03T13:50:36;15.60;61.70
44833;DHT22;30569;51.252;9.830;2023-05-03T13:53:02;15.70;63.60
44833;DHT22;30569;51.252;9.830;2023-05-03T13:55:27;15.60;62.40
44833;DHT22;30569;51.252;9.830;2023-05-03T13:57:53;15.60;63.60
44833;DHT22;30569;51.252;9.830;2023-05-03T14:00:18;15.90;62.90
44833;DHT22;30569;51.252;9.830;2023-05-03T14:02:45;16.00;61.60
44833;DHT22;30569;51.252;9.830;2023-05-03T14:05:12;15.80;61.60
44833;DHT22;30569;51.252;9.830;2023-05-03T14:07:38;15.90;62.20
44833;DHT22;30569;51.252;9.830;2023-05-03T14:10:04;15.60;62.40
44833;DHT22;30569;51.252;9.830;2023-05-03T14:12:30;15.70;65.10
44833;DHT22;30569;51.252;9.830;2023-05-03T14:15:04;16.10;60.60
44833;DHT22;30569;51.252;9.830;2023-05-03T14:17:30;16.10;61.40
44833;DHT22;30569;51.252;9.830;2023-05-03T14:19:57;16.40;60.80
44833;DHT22;30569;51.252;9.830;2023-05-03T14:24:49;16.20;60.90
44833;DHT22;30569;51.252;9.830;2023-05-03T14:27:15;15.90;64.80
44833;DHT22;30569;51.252;9.830;2023-05-03T14:29:44;15.90;65.40
44833;DHT22;30569;51.252;9.830;2023-05-03T14:32:11;16.00;63.90
44833;DHT22;30569;51.252;9.830;2023-05-03T14:34:37;16.20;61.70
44833;DHT22;30569;51.252;9.830;2023-05-03T14:37:02;16.20;62.20
44833;DHT22;30569;51.252;9.830;2023-05-03T14:39:28;16.50;61.80
44833;DHT22;30569;51.252;9.830;2023-05-03T14:41:54;16.40;61.30
44833;DHT22;30569;51.252;9.830;2023-05-03T14:44:19;16.30;62.60
44833;DHT22;30569;51.252;9.830;2023-05-03T14:46:45;16.20;62.90
44833;DHT22;30569;51.252;9.830;2023-05-03T14:49:12;16.30;64.90
44833;DHT22;30569;51.252;9.830;2023-05-03T14:51:38;16.40;60.40
44833;DHT22;30569;51.252;9.830;2023-05-03T14:54:04;16.50;60.60
44833;DHT22;30569;51.252;9.830;2023-05-03T14:56:30;16.60;61.00
44833;DHT22;30569;51.252;9.830;2023-05-03T14:58:58;16.40;63.50
44833;DHT22;30569;51.252;9.830;2023-05-03T15:01:25;16.30;62.90
44833;DHT22;30569;51.252;9.830;2023-05-03T15:03:51;16.10;63.00
44833;DHT22;30569;51.252;9.830;2023-05-03T15:06:27;16.00;64.00
44833;DHT22;30569;51.252;9.830;2023-05-03T15:08:53;16.10;66.20
44833;DHT22;30569;51.252;9.830;2023-05-03T15:11:20;16.10;65.60
44833;DHT22;30569;51.252;9.830;2023-05-03T15:13:46;16.10;65.50
44833;DHT22;30569;51.252;9.830;2023-05-03T15:16:12;16.20;64.40
44833;DHT22;30569;51.252;9.830;2023-05-03T15:18:37;16.30;62.50
44833;DHT22;30569;51.252;9.830;2023-05-03T15:21:03;16.30;62.60
44833;DHT22;30569;51.252;9.830;2023-05-03T15:23:29;16.20;63.10
44833;DHT22;30569;51.252;9.830;2023-05-03T15:25:55;16.20;63.80
44833;DHT22;30569;51.252;9.830;2023-05-03T15:28:21;17.50;67.70
44833;DHT22;30569;51.252;9.830;2023-05-03T15:35:39;16.10;64.00
44833;DHT22;30569;51.252;9.830;2023-05-03T15:38:05;16.10;64.40
44833;DHT22;30569;51.252;9.830;2023-05-03T16:00:07;15.90;64.80
44833;DHT22;30569;51.252;9.830;2023-05-03T16:02:34;16.00;65.40
44833;DHT22;30569;51.252;9.830;2023-05-03T16:09:53;15.70;64.90
44833;DHT22;30569;51.252;9.830;2023-05-03T16:22:03;16.00;63.30
44833;DHT22;30569;51.252;9.830;2023-05-03T16:24:30;16.40;64.10
44833;DHT22;30569;51.252;9.830;2023-05-03T16:34:15;15.60;65.20
44833;DHT22;30569;51.252;9.830;2023-05-03T16:36:41;15.60;65.60
44833;DHT22;30569;51.252;9.830;2023-05-03T16:39:11;15.80;64.60
44833;DHT22;30569;51.252;9.830;2023-05-03T16:41:38;15.50;65.70
44833;DHT22;30569;51.252;9.830;2023-05-03T16:44:04;15.30;66.60
44833;DHT22;30569;51.252;9.830;2023-05-03T16:46:35;15.30;67.90
44833;DHT22;30569;51.252;9.830;2023-05-03T16:49:02;15.50;68.60
44833;DHT22;30569;51.252;9.830;2023-05-03T16:51:27;15.90;63.70
44833;DHT22;30569;51.252;9.830;2023-05-03T16:53:53;15.80;64.40
44833;DHT22;30569;51.252;9.830;2023-05-03T17:01:12;15.60;65.70
44833;DHT22;30569;51.252;9.830;2023-05-03T17:03:40;15.30;64.60
44833;DHT22;30569;51.252;9.830;2023-05-03T17:06:18;15.40;65.90
44833;DHT22;30569;51.252;9.830;2023-05-03T17:08:44;15.50;66.00
44833;DHT22;30569;51.252;9.830;2023-05-03T17:11:12;15.50;65.90
44833;DHT22;30569;51.252;9.830;2023-05-03T17:16:09;15.70;65.10
44833;DHT22;30569;51.252;9.830;2023-05-03T17:18:36;15.30;66.90
44833;DHT22;30569;51.252;9.830;2023-05-03T17:21:03;15.30;67.50
44833;DHT22;30569;51.252;9.830;2023-05-03T17:23:34;15.20;66.50
44833;DHT22;30569;51.252;9.830;2023-05-03T17:26:05;15.30;65.10
44833;DHT22;30569;51.252;9.830;2023-05-03T17:28:33;14.90;70.10
44833;DHT22;30569;51.252;9.830;2023-05-03T17:30:59;14.90;68.50
44833;DHT22;30569;51.252;9.830;2023-05-03T17:33:25;15.00;68.30
44833;DHT22;30569;51.252;9.830;2023-05-03T17:35:52;14.80;66.80
44833;DHT22;30569;51.252;9.830;2023-05-03T17:38:17;14.50;66.80
44833;DHT22;30569;51.252;9.830;2023-05-03T17:40:43;14.40;66.50
44833;DHT22;30569;51.252;9.830;2023-05-03T17:48:09;13.90;71.80
44833;DHT22;30569;51.252;9.830;2023-05-03T17:50:34;13.90;68.60
44833;DHT22;30569;51.252;9.830;2023-05-03T17:53:00;14.30;67.80
44833;DHT22;30569;51.252;9.830;2023-05-03T17:55:25;14.40;69.20
44833;DHT22;30569;51.252;9.830;2023-05-03T17:57:52;14.50;69.70
44833;DHT22;30569;51.252;9.830;2023-05-03T18:00:18;14.30;69.70
44833;DHT22;30569;51.252;9.830;2023-05-03T18:05:11;14.20;69.20
44833;DHT22;30569;51.252;9.830;2023-05-03T18:12:30;13.20;74.80
44833;DHT22;30569;51.252;9.830;2023-05-03T18:17:28;13.30;72.40
44833;DHT22;30569;51.252;9.830;2023-05-03T18:19:54;13.30;71.60
44833;DHT22;30569;51.252;9.830;2023-05-03T18:29:38;12.90;73.50
44833;DHT22;30569;51.252;9.830;2023-05-03T18:32:04;12.90;74.80
44833;DHT22;30569;51.252;9.830;2023-05-03T18:34:31;12.20;72.30
44833;DHT22;30569;51.252;9.830;2023-05-03T18:46:41;12.10;73.90
44833;DHT22;30569;51.252;9.830;2023-05-03T18:56:27;11.90;73.20
44833;DHT22;30569;51.252;9.830;2023-05-03T18:58:55;12.10;74.30
44833;DHT22;30569;51.252;9.830;2023-05-03T19:01:21;12.10;73.50